createdAt,value
2022-09-07T00:01:12.582Z,11.90
2022-09-07T00:03:40.767Z,11.90
2022-09-07T00:06:13.006Z,11.90
2022-09-07T00:08:43.872Z,11.90
2022-09-07T00:11:18.475Z,11.90
2022-09-07T00:13:49.484Z,11.90
2022-09-07T00:16:30.422Z,11.90
2022-09-07T00:19:01.783Z,11.90
2022-09-07T00:21:30.686Z,11.80
2022-09-07T00:23:59.330Z,11.60
2022-09-07T00:26:33.963Z,11.60
2022-09-07T00:29:04.547Z,11.60
2022-09-07T00:31:34.854Z,11.50
2022-09-07T00:34:03.334Z,11.44
2022-09-07T00:36:31.301Z,11.40
2022-09-07T00:38:59.468Z,11.40
2022-09-07T00:41:27.613Z,11.40
2022-09-07T00:44:18.592Z,11.34
2022-09-07T00:46:47.121Z,11.30
2022-09-07T00:49:21.770Z,11.20
2022-09-07T00:51:57.979Z,11.20
2022-09-07T00:54:43.574Z,11.26
2022-09-07T00:57:12.934Z,11.24
2022-09-07T00:59:49.736Z,11.20
2022-09-07T01:02:19.125Z,11.16
2022-09-07T01:04:52.065Z,11.20
2022-09-07T01:07:20.607Z,11.10
2022-09-07T01:09:50.937Z,11.00
2022-09-07T01:12:18.716Z,11.00
2022-09-07T01:14:51.980Z,10.90
2022-09-07T01:17:42.217Z,11.00
2022-09-07T01:20:40.655Z,11.00
2022-09-07T01:23:27.918Z,11.00
2022-09-07T01:26:21.199Z,10.92
2022-09-07T01:28:57.642Z,10.90
2022-09-07T01:31:44.619Z,10.90
2022-09-07T01:34:25.881Z,10.90
2022-09-07T01:37:22.278Z,10.80
2022-09-07T01:40:06.092Z,10.90
2022-09-07T01:42:49.382Z,10.90
2022-09-07T01:45:24.370Z,10.82
2022-09-07T01:48:00.504Z,10.90
2022-09-07T01:50:54.219Z,10.80
2022-09-07T01:53:34.090Z,10.80
2022-09-07T01:56:36.329Z,10.80
2022-09-07T01:59:28.782Z,10.80
2022-09-07T02:02:24.270Z,10.80
2022-09-07T02:05:00.651Z,10.80
2022-09-07T02:07:40.359Z,10.80
2022-09-07T02:10:21.156Z,10.80
2022-09-07T02:13:18.175Z,10.70
2022-09-07T02:16:00.428Z,10.70
2022-09-07T02:18:37.684Z,10.70
2022-09-07T02:21:10.314Z,10.60
2022-09-07T02:23:57.139Z,10.70
2022-09-07T02:26:29.455Z,10.70
2022-09-07T02:28:58.325Z,10.68
2022-09-07T02:31:26.367Z,10.70
2022-09-07T02:33:54.399Z,10.70
2022-09-07T02:36:28.055Z,10.70
2022-09-07T02:38:56.256Z,10.70
2022-09-07T02:41:39.098Z,10.70
2022-09-07T02:44:18.444Z,10.60
2022-09-07T02:47:12.585Z,10.60
2022-09-07T02:50:17.470Z,10.60
2022-09-07T02:53:17.406Z,10.52
2022-09-07T02:56:12.974Z,10.50
2022-09-07T02:58:55.832Z,10.50
2022-09-07T03:01:56.356Z,10.48
2022-09-07T03:04:46.413Z,10.40
2022-09-07T03:07:24.189Z,10.40
2022-09-07T03:09:57.247Z,10.34
2022-09-07T03:12:25.639Z,10.30
2022-09-07T03:14:53.329Z,10.20
2022-09-07T03:17:21.098Z,10.20
2022-09-07T03:19:48.887Z,10.20
2022-09-07T03:22:16.606Z,10.12
2022-09-07T03:24:44.820Z,10.10
2022-09-07T03:27:12.597Z,10.10
2022-09-07T03:29:42.169Z,10.10
2022-09-07T03:32:10.064Z,10.10
2022-09-07T03:34:37.753Z,10.10
2022-09-07T03:37:05.588Z,10.00
2022-09-07T03:39:33.561Z,10.00
2022-09-07T03:42:01.231Z,9.90
2022-09-07T03:44:29.088Z,9.88
2022-09-07T03:46:57.231Z,9.80
2022-09-07T03:49:24.949Z,9.80
2022-09-07T03:51:52.690Z,9.70
2022-09-07T03:54:20.437Z,9.68
2022-09-07T03:56:48.445Z,9.64
2022-09-07T03:59:16.180Z,9.60
2022-09-07T04:01:44.302Z,9.60
2022-09-07T04:04:13.251Z,9.50
2022-09-07T04:06:41.102Z,9.50
2022-09-07T04:09:13.974Z,9.50
2022-09-07T04:11:42.504Z,9.50
2022-09-07T04:14:11.560Z,9.46
2022-09-07T04:16:39.671Z,9.40
2022-09-07T04:19:07.812Z,9.40
2022-09-07T04:21:35.829Z,9.40
2022-09-07T04:24:04.074Z,9.36
2022-09-07T04:26:35.642Z,9.30
2022-09-07T04:29:06.221Z,9.30
2022-09-07T04:31:35.486Z,9.38
2022-09-07T04:34:05.257Z,9.46
2022-09-07T04:36:33.797Z,9.50
2022-09-07T04:39:06.046Z,9.40
2022-09-07T04:41:35.190Z,9.40
2022-09-07T04:44:04.817Z,9.40
2022-09-07T04:46:37.921Z,9.40
2022-09-07T04:49:09.433Z,9.40
2022-09-07T04:51:39.564Z,9.40
2022-09-07T04:54:07.386Z,9.40
2022-09-07T04:56:35.414Z,9.40
2022-09-07T04:59:04.152Z,9.40
2022-09-07T05:01:32.059Z,9.40
2022-09-07T05:04:02.457Z,9.40
2022-09-07T05:06:30.813Z,9.40
2022-09-07T05:09:00.025Z,9.40
2022-09-07T05:11:29.868Z,9.40
2022-09-07T05:14:03.627Z,9.42
2022-09-07T05:16:32.199Z,9.40
2022-09-07T05:19:03.192Z,9.40
2022-09-07T05:21:34.394Z,9.40
2022-09-07T05:24:04.435Z,9.48
2022-09-07T05:26:36.376Z,9.50
2022-09-07T05:31:55.208Z,9.60
2022-09-07T05:34:31.882Z,9.68
2022-09-07T05:37:01.633Z,9.70
2022-09-07T05:39:30.731Z,9.72
2022-09-07T05:41:58.627Z,9.80
2022-09-07T05:47:10.706Z,9.88
2022-09-07T05:49:38.638Z,9.80
2022-09-07T05:52:06.993Z,9.70
2022-09-07T05:54:34.972Z,9.70
2022-09-07T05:57:03.763Z,9.70
2022-09-07T05:59:31.659Z,9.74
2022-09-07T06:02:00.569Z,9.80
2022-09-07T06:04:29.234Z,9.90
2022-09-07T06:07:20.721Z,9.90
2022-09-07T06:12:33.870Z,10.00
2022-09-07T06:15:02.138Z,10.00
2022-09-07T06:17:31.143Z,10.00
2022-09-07T06:19:59.084Z,10.10
2022-09-07T06:22:30.726Z,10.20
2022-09-07T06:24:59.610Z,10.28
2022-09-07T06:27:28.054Z,10.30
2022-09-07T06:29:55.980Z,10.30
2022-09-07T06:35:13.800Z,10.40
2022-09-07T06:37:42.592Z,10.50
2022-09-07T06:40:11.899Z,10.58
2022-09-07T06:42:39.822Z,10.62
2022-09-07T06:45:10.135Z,10.70
2022-09-07T06:47:37.933Z,10.80
2022-09-07T06:50:06.676Z,10.72
2022-09-07T06:55:28.025Z,10.92
2022-09-07T06:57:56.318Z,11.08
2022-09-07T07:00:24.223Z,11.10
2022-09-07T07:02:52.182Z,11.10
2022-09-07T07:05:20.013Z,11.04
2022-09-07T07:07:48.011Z,11.00
2022-09-07T07:10:17.851Z,11.00
2022-09-07T07:12:47.566Z,11.00
2022-09-07T07:15:15.420Z,11.00
2022-09-07T07:17:43.853Z,11.00
2022-09-07T07:20:12.142Z,11.00
2022-09-07T07:22:46.407Z,11.10
2022-09-07T07:25:15.530Z,11.20
2022-09-07T07:27:45.932Z,11.30
2022-09-07T07:30:17.290Z,11.30
2022-09-07T07:32:46.427Z,11.32
2022-09-07T07:35:15.077Z,11.30
2022-09-07T07:37:43.194Z,11.40
2022-09-07T07:42:46.258Z,11.40
2022-09-07T07:48:02.899Z,11.50
2022-09-07T07:50:31.634Z,11.60
2022-09-07T07:55:48.783Z,11.70
2022-09-07T07:58:16.958Z,11.70
2022-09-07T08:00:54.257Z,11.80
2022-09-07T08:03:25.478Z,11.92
2022-09-07T08:05:54.825Z,12.00
2022-09-07T08:08:24.108Z,12.10
2022-09-07T08:10:52.500Z,12.28
2022-09-07T08:13:21.387Z,12.40
2022-09-07T08:15:50.686Z,12.40
2022-09-07T08:18:18.904Z,12.58
2022-09-07T08:20:46.617Z,12.70
2022-09-07T08:23:15.430Z,12.70
2022-09-07T08:25:55.194Z,12.88
2022-09-07T08:28:23.666Z,13.00
2022-09-07T08:30:52.213Z,13.20
2022-09-07T08:33:20.684Z,13.30
2022-09-07T08:36:01.114Z,13.30
2022-09-07T08:38:31.794Z,13.30
2022-09-07T08:41:01.422Z,13.40
2022-09-07T08:43:49.090Z,13.56
2022-09-07T08:46:45.768Z,13.70
2022-09-07T08:49:22.069Z,13.88
2022-09-07T08:52:00.223Z,13.90
2022-09-07T08:54:29.372Z,14.00
2022-09-07T09:00:11.834Z,14.30
2022-09-07T09:02:43.772Z,14.50
2022-09-07T09:05:31.786Z,14.60
2022-09-07T09:08:27.267Z,14.70
2022-09-07T09:11:35.138Z,14.80
2022-09-07T09:14:24.445Z,14.90
2022-09-07T09:17:07.678Z,14.94
2022-09-07T09:20:00.276Z,15.00
2022-09-07T09:22:29.169Z,15.20
2022-09-07T09:25:30.340Z,15.40
2022-09-07T09:27:58.035Z,15.60
2022-09-07T09:30:27.300Z,15.78
2022-09-07T09:33:22.040Z,15.90
2022-09-07T09:35:54.371Z,16.06
2022-09-07T09:38:40.867Z,16.00
2022-09-07T09:41:15.273Z,16.20
2022-09-07T09:43:55.103Z,16.34
2022-09-07T09:46:37.050Z,16.58
2022-09-07T09:49:26.342Z,16.78
2022-09-07T09:54:52.631Z,16.92
2022-09-07T10:06:23.145Z,17.50
2022-09-07T10:09:02.503Z,17.68
2022-09-07T10:12:09.064Z,17.80
2022-09-07T10:14:44.582Z,17.94
2022-09-07T10:17:31.456Z,18.12
2022-09-07T10:20:21.894Z,18.30
2022-09-07T10:22:52.599Z,18.40
2022-09-07T10:25:31.621Z,18.58
2022-09-07T10:28:09.370Z,18.70
2022-09-07T10:30:46.147Z,18.90
2022-09-07T10:33:28.870Z,18.90
2022-09-07T10:36:08.846Z,18.92
2022-09-07T10:38:53.985Z,19.00
2022-09-07T10:41:51.313Z,19.18
2022-09-07T10:44:57.113Z,19.50
2022-09-07T10:48:10.323Z,19.62
2022-09-07T10:51:16.302Z,19.80
2022-09-07T10:57:37.286Z,20.10
2022-09-07T11:00:17.540Z,20.26
2022-09-07T11:03:37.354Z,20.40
2022-09-07T11:06:22.326Z,20.60
2022-09-07T11:09:21.964Z,20.80
2022-09-07T11:12:09.658Z,20.90
2022-09-07T11:14:48.137Z,20.70
2022-09-07T11:17:30.090Z,20.50
2022-09-07T11:20:13.858Z,20.28
2022-09-07T11:23:19.822Z,20.00
2022-09-07T11:26:03.506Z,19.80
2022-09-07T11:28:45.348Z,19.70
2022-09-07T11:31:43.596Z,19.60
2022-09-07T11:34:33.176Z,19.58
2022-09-07T11:37:12.130Z,19.70
2022-09-07T11:40:21.649Z,19.80
2022-09-07T11:42:59.709Z,19.70
2022-09-07T11:45:40.203Z,19.70
2022-09-07T11:48:22.297Z,19.70
2022-09-07T11:51:01.684Z,19.80
2022-09-07T11:53:36.622Z,19.66
2022-09-07T11:56:22.179Z,19.50
2022-09-07T11:59:11.450Z,19.60
2022-09-07T12:02:11.065Z,19.80
2022-09-07T12:05:16.222Z,20.00
2022-09-07T12:08:25.032Z,20.00
2022-09-07T12:11:08.393Z,19.90
2022-09-07T12:13:45.120Z,19.80
2022-09-07T12:16:40.169Z,19.80
2022-09-07T12:19:21.748Z,19.72
2022-09-07T12:21:52.570Z,19.90
2022-09-07T12:24:51.468Z,20.08
2022-09-07T12:27:22.265Z,20.40
2022-09-07T12:30:13.570Z,20.30
2022-09-07T12:32:55.296Z,20.20
2022-09-07T12:35:26.666Z,20.30
2022-09-07T12:37:56.575Z,20.30
2022-09-07T12:40:36.263Z,20.30
2022-09-07T12:43:13.060Z,20.30
2022-09-07T12:45:41.652Z,20.28
2022-09-07T12:48:46.858Z,20.28
2022-09-07T12:54:38.003Z,20.20
2022-09-07T12:57:38.048Z,20.20
2022-09-07T13:00:23.737Z,20.12
2022-09-07T13:09:40.092Z,21.22
2022-09-07T13:12:57.203Z,21.50
2022-09-07T13:15:49.011Z,21.80
2022-09-07T13:18:25.987Z,22.06
2022-09-07T13:21:09.046Z,22.30
2022-09-07T13:23:43.113Z,22.40
2022-09-07T13:26:57.518Z,22.60
2022-09-07T13:29:38.535Z,22.80
2022-09-07T13:35:25.329Z,23.14
2022-09-07T13:37:59.769Z,23.26
2022-09-07T13:40:32.450Z,23.30
2022-09-07T13:43:04.266Z,23.38
2022-09-07T13:46:04.538Z,23.30
2022-09-07T13:48:54.052Z,23.40
2022-09-07T13:51:47.271Z,23.50
2022-09-07T13:54:58.706Z,23.60
2022-09-07T13:57:39.645Z,23.70
2022-09-07T14:00:15.177Z,23.70
2022-09-07T14:02:43.561Z,23.70
2022-09-07T14:05:18.689Z,23.70
2022-09-07T14:07:48.724Z,23.64
2022-09-07T14:10:23.910Z,23.48
2022-09-07T14:12:54.447Z,23.30
2022-09-07T14:15:50.756Z,23.30
2022-09-07T14:18:29.872Z,23.12
2022-09-07T14:20:58.843Z,23.00
2022-09-07T14:23:35.007Z,22.90
2022-09-07T14:26:19.283Z,22.70
2022-09-07T14:28:54.230Z,22.70
2022-09-07T14:31:25.097Z,22.60
2022-09-07T14:33:59.517Z,22.50
2022-09-07T14:36:45.645Z,22.38
2022-09-07T14:39:17.728Z,22.30
2022-09-07T14:41:47.220Z,22.34
2022-09-07T14:44:43.024Z,22.40
2022-09-07T14:47:34.009Z,22.40
2022-09-07T14:50:06.290Z,22.40
2022-09-07T14:53:33.373Z,22.40
2022-09-07T14:55:40.338Z,22.40
2022-09-07T14:58:13.159Z,22.30
2022-09-07T15:03:42.459Z,22.10
2022-09-07T15:07:00.921Z,22.08
2022-09-07T15:08:59.785Z,22.10
2022-09-07T15:11:33.383Z,22.10
2022-09-07T15:14:08.739Z,22.20
2022-09-07T15:19:50.456Z,22.30
2022-09-07T15:22:19.309Z,22.40
2022-09-07T15:24:48.867Z,22.40
2022-09-07T15:27:27.203Z,22.50
2022-09-07T15:29:55.772Z,22.50
2022-09-07T15:32:24.354Z,22.50
2022-09-07T15:34:53.426Z,22.60
2022-09-07T15:40:26.400Z,22.78
2022-09-07T15:43:00.597Z,22.80
2022-09-07T15:45:28.655Z,22.80
2022-09-07T15:47:57.014Z,22.84
2022-09-07T15:50:25.125Z,22.90
2022-09-07T15:52:52.922Z,22.90
2022-09-07T15:55:22.230Z,23.00
2022-09-07T15:57:56.868Z,23.10
2022-09-07T16:00:27.959Z,23.20
2022-09-07T16:03:11.379Z,23.20
2022-09-07T16:05:44.893Z,23.10
2022-09-07T16:08:32.762Z,23.10
2022-09-07T16:11:18.520Z,23.10
2022-09-07T16:13:48.345Z,23.10
2022-09-07T16:16:16.422Z,23.10
2022-09-07T16:18:46.700Z,23.10
2022-09-07T16:21:16.760Z,23.10
2022-09-07T16:23:48.869Z,23.06
2022-09-07T16:26:21.247Z,23.00
2022-09-07T16:28:51.889Z,23.10
2022-09-07T16:31:28.094Z,23.10
2022-09-07T16:33:55.941Z,23.10
2022-09-07T16:36:24.169Z,22.90
2022-09-07T16:38:59.269Z,22.90
2022-09-07T16:41:33.113Z,22.80
2022-09-07T16:44:00.817Z,22.70
2022-09-07T16:46:35.332Z,22.70
2022-09-07T16:49:04.162Z,22.60
2022-09-07T16:51:31.819Z,22.40
2022-09-07T16:54:00.330Z,22.20
2022-09-07T16:56:33.658Z,22.10
2022-09-07T16:59:08.645Z,21.90
2022-09-07T17:01:38.062Z,21.64
2022-09-07T17:04:11.233Z,21.40
2022-09-07T17:06:40.735Z,21.16
2022-09-07T17:09:09.011Z,20.90
2022-09-07T17:11:37.717Z,20.72
2022-09-07T17:14:06.701Z,20.60
2022-09-07T17:16:38.907Z,20.50
2022-09-07T17:22:00.358Z,20.40
2022-09-07T17:24:29.627Z,20.40
2022-09-07T17:27:00.588Z,20.40
2022-09-07T17:29:30.639Z,20.32
2022-09-07T17:34:47.870Z,20.00
2022-09-07T17:37:15.902Z,19.72
2022-09-07T17:39:44.380Z,19.50
2022-09-07T17:42:12.769Z,19.30
2022-09-07T17:44:40.502Z,19.04
2022-09-07T17:47:08.325Z,18.80
2022-09-07T17:49:36.318Z,18.60
2022-09-07T17:52:04.341Z,18.40
2022-09-07T17:54:32.963Z,18.26
2022-09-07T17:57:00.716Z,18.10
2022-09-07T18:02:16.415Z,17.90
2022-09-07T18:04:44.136Z,17.90
2022-09-07T18:07:12.176Z,17.80
2022-09-07T18:09:40.460Z,17.70
2022-09-07T18:12:08.549Z,17.60
2022-09-07T18:14:36.298Z,17.60
2022-09-07T18:17:05.592Z,17.50
2022-09-07T18:19:33.539Z,17.40
2022-09-07T18:22:03.873Z,17.30
2022-09-07T18:24:32.146Z,17.20
2022-09-07T18:26:59.991Z,17.20
2022-09-07T18:29:31.085Z,17.10
2022-09-07T18:32:05.715Z,17.20
2022-09-07T18:34:37.105Z,17.18
2022-09-07T18:37:06.669Z,17.10
2022-09-07T18:39:35.791Z,17.10
2022-09-07T18:42:04.322Z,17.02
2022-09-07T18:47:27.895Z,16.80
2022-09-07T18:49:57.337Z,16.74
2022-09-07T18:55:14.507Z,16.68
2022-09-07T18:57:42.741Z,16.60
2022-09-07T19:00:13.328Z,16.50
2022-09-07T19:02:41.506Z,16.42
2022-09-07T19:07:59.765Z,16.30
2022-09-07T19:10:27.756Z,16.30
2022-09-07T19:12:56.271Z,16.20
2022-09-07T19:15:24.186Z,16.20
2022-09-07T19:17:52.063Z,16.10
2022-09-07T19:20:20.249Z,16.10
2022-09-07T19:22:48.332Z,16.00
2022-09-07T19:25:17.404Z,16.00
2022-09-07T19:27:45.813Z,16.04
2022-09-07T19:30:15.273Z,16.10
2022-09-07T19:32:43.640Z,16.10
2022-09-07T19:35:11.374Z,16.10
2022-09-07T19:37:39.381Z,16.10
2022-09-07T19:40:14.766Z,16.00
2022-09-07T19:42:46.565Z,15.94
2022-09-07T19:45:15.298Z,15.90
2022-09-07T19:47:43.104Z,15.80
2022-09-07T19:50:11.622Z,15.72
2022-09-07T19:52:39.286Z,15.70
2022-09-07T19:55:08.225Z,15.60
2022-09-07T19:57:35.968Z,15.60
2022-09-07T20:00:05.474Z,15.50
2022-09-07T20:02:33.464Z,15.40
2022-09-07T20:05:01.157Z,15.40
2022-09-07T20:07:28.810Z,15.40
2022-09-07T20:09:57.068Z,15.50
2022-09-07T20:12:24.871Z,15.50
2022-09-07T20:14:52.484Z,15.54
2022-09-07T20:17:20.213Z,15.50
2022-09-07T20:19:47.924Z,15.40
2022-09-07T20:22:15.603Z,15.40
2022-09-07T20:24:43.858Z,15.30
2022-09-07T20:27:11.521Z,15.30
2022-09-07T20:29:39.436Z,15.20
2022-09-07T20:32:07.138Z,15.20
2022-09-07T20:34:35.043Z,15.10
2022-09-07T20:37:02.702Z,15.10
2022-09-07T20:39:30.485Z,15.10
2022-09-07T20:41:59.135Z,15.10
2022-09-07T20:44:27.316Z,15.10
2022-09-07T20:46:55.241Z,15.10
2022-09-07T20:49:23.025Z,15.10
2022-09-07T20:51:50.817Z,15.10
2022-09-07T20:54:18.869Z,15.10
2022-09-07T20:56:46.804Z,15.00
2022-09-07T20:59:15.334Z,15.00
2022-09-07T21:01:43.165Z,14.90
2022-09-07T21:04:11.089Z,14.94
2022-09-07T21:06:38.815Z,14.90
2022-09-07T21:09:06.502Z,15.00
2022-09-07T21:11:36.893Z,15.00
2022-09-07T21:14:12.560Z,14.98
2022-09-07T21:16:40.965Z,14.90
2022-09-07T21:19:12.882Z,14.90
2022-09-07T21:21:42.861Z,14.90
2022-09-07T21:24:21.276Z,14.84
2022-09-07T21:26:50.835Z,14.80
2022-09-07T21:29:24.408Z,14.80
2022-09-07T21:31:55.834Z,14.80
2022-09-07T21:34:24.004Z,14.80
2022-09-07T21:36:52.905Z,14.70
2022-09-07T21:39:21.612Z,14.72
2022-09-07T21:41:49.304Z,14.70
2022-09-07T21:44:17.403Z,14.60
2022-09-07T21:46:45.650Z,14.60
2022-09-07T21:49:13.759Z,14.62
2022-09-07T21:51:41.482Z,14.60
2022-09-07T21:54:09.603Z,14.60
2022-09-07T21:56:37.266Z,14.62
2022-09-07T21:59:05.201Z,14.70
2022-09-07T22:01:33.116Z,14.62
2022-09-07T22:04:05.202Z,14.70
2022-09-07T22:06:34.542Z,14.60
2022-09-07T22:09:05.130Z,14.60
2022-09-07T22:11:33.261Z,14.60
2022-09-07T22:14:04.884Z,14.60
2022-09-07T22:16:34.590Z,14.50
2022-09-07T22:19:02.863Z,14.50
2022-09-07T22:21:31.698Z,14.50
2022-09-07T22:24:03.947Z,14.50
2022-09-07T22:26:39.951Z,14.46
2022-09-07T22:29:11.081Z,14.50
2022-09-07T22:31:41.181Z,14.50
2022-09-07T22:34:10.442Z,14.60
2022-09-07T22:36:44.629Z,14.60
2022-09-07T22:39:16.856Z,14.60
2022-09-07T22:41:47.576Z,14.50
2022-09-07T22:44:18.236Z,14.50
2022-09-07T22:46:47.567Z,14.50
2022-09-07T22:49:17.182Z,14.46
2022-09-07T22:51:47.382Z,14.40
2022-09-07T22:54:15.106Z,14.40
2022-09-07T22:56:43.222Z,14.34
2022-09-07T22:59:13.317Z,14.30
2022-09-07T23:01:41.918Z,14.34
2022-09-07T23:04:11.177Z,14.40
2022-09-07T23:06:42.665Z,14.40
2022-09-07T23:09:17.607Z,14.40
2022-09-07T23:11:48.137Z,14.38
2022-09-07T23:14:24.629Z,14.40
2022-09-07T23:16:52.655Z,14.42
2022-09-07T23:19:20.991Z,14.46
2022-09-07T23:21:49.209Z,14.44
2022-09-07T23:24:19.120Z,14.48
2022-09-07T23:26:47.702Z,14.40
2022-09-07T23:29:16.564Z,14.30
2022-09-07T23:31:46.499Z,14.30
2022-09-07T23:34:14.459Z,14.30
2022-09-07T23:36:42.197Z,14.30
2022-09-07T23:39:10.297Z,14.30
2022-09-07T23:41:39.198Z,14.38
2022-09-07T23:44:07.010Z,14.40
2022-09-07T23:46:34.688Z,14.40
2022-09-07T23:49:02.430Z,14.40
2022-09-07T23:51:30.094Z,14.40
2022-09-07T23:53:57.791Z,14.40
2022-09-07T23:56:26.042Z,14.40
2022-09-07T23:58:53.706Z,14.40
